Time;durP1;ratioP1;P1;durP2;ratioP2;P2;SDS_P1;SDS_P2;PMS_P1;PMS_P2;Temp;Humidity;BMP_temperature;BMP_pressure;BME280_temperature;BME280_humidity;BME280_pressure;Samples;Min_cycle;Max_cycle;Signal;HPM_P1;HPM_P2
2022/05/07 00:00:12;;;;;;;37.50;18.75;;;;;;;10.68;78.92;100966.45;709117;1182;115444;-73
2022/05/07 00:15:35;;;;;;;34.80;17.90;;;;;;;10.44;79.97;100972.64;709956;1182;114732;-73
2022/05/07 00:30:39;;;;;;;31.00;14.50;;;;;;;10.59;79.71;100965.37;709320;1184;115512;-74
2022/05/07 00:45:46;;;;;;;199.50;42.10;;;;;;;10.52;80.53;100961.56;709239;1182;115634;-73
2022/05/07 01:00:53;;;;;;;33.10;16.55;;;;;;;10.03;80.79;100958.23;709418;1180;116468;-74
2022/05/07 01:15:57;;;;;;;24.13;13.80;;;;;;;9.75;84.19;100970.78;709591;1180;114391;-74
2022/05/07 01:31:01;;;;;;;81.15;38.90;;;;;;;9.78;84.54;100967.92;709759;1180;115614;-73
2022/05/07 01:48:09;;;;;;;36.90;19.00;;;;;;;9.87;84.74;100968.18;709693;1180;115563;-73
2022/05/07 02:01:29;;;;;;;63.35;24.30;;;;;;;9.69;84.50;100973.84;709371;1180;115728;-73
2022/05/07 02:16:32;;;;;;;369.70;102.10;;;;;;;9.61;84.47;100976.19;709575;1182;114934;-73
2022/05/07 02:31:36;;;;;;;29.45;17.15;;;;;;;9.32;83.79;100973.90;709436;1181;115481;-74
2022/05/07 02:46:43;;;;;;;44.80;17.90;;;;;;;9.14;83.38;100986.51;710102;1180;115132;-73
2022/05/07 03:01:47;;;;;;;37.00;15.90;;;;;;;9.00;84.00;100979.65;709818;1180;114833;-74
2022/05/07 03:16:51;;;;;;;27.60;12.30;;;;;;;9.04;83.37;100988.09;709399;1180;115080;-74
2022/05/07 03:31:54;;;;;;;26.80;12.90;;;;;;;8.92;84.49;101008.11;709384;1180;115117;-74
2022/05/07 03:46:58;;;;;;;20.83;10.03;;;;;;;9.01;84.97;101010.09;709495;1180;115862;-74
2022/05/07 04:02:02;;;;;;;18.70;9.15;;;;;;;9.31;84.79;101014.11;709590;1180;114820;-73
2022/05/07 04:17:05;;;;;;;21.60;9.55;;;;;;;9.68;84.84;101008.84;709354;1180;115470;-76
2022/05/07 04:32:09;;;;;;;22.80;10.20;;;;;;;10.01;84.90;101006.48;710166;1181;115635;-76
2022/05/07 04:47:12;;;;;;;15.90;8.80;;;;;;;10.46;84.46;101017.11;709927;1182;114608;-77
2022/05/07 05:02:16;;;;;;;16.70;9.30;;;;;;;11.05;84.13;101018.70;709761;1180;114929;-74
2022/05/07 05:17:19;;;;;;;15.25;9.40;;;;;;;11.60;83.63;101033.64;709737;1180;115226;-74
2022/05/07 05:32:23;;;;;;;16.95;8.55;;;;;;;12.13;83.21;101046.05;709187;1180;115445;-75
2022/05/07 05:47:27;;;;;;;24.35;10.75;;;;;;;12.73;82.44;101046.27;709634;1180;116132;-73
2022/05/07 06:02:30;;;;;;;15.40;8.40;;;;;;;13.50;82.09;101053.80;709979;1182;115208;-75
2022/05/07 06:17:35;;;;;;;9.75;5.30;;;;;;;14.35;78.56;101047.02;710259;1180;116106;-75
2022/05/07 06:32:42;;;;;;;9.30;4.60;;;;;;;15.03;75.67;101046.03;710530;1180;115188;-79
2022/05/07 06:47:46;;;;;;;7.70;2.80;;;;;;;15.85;72.98;101034.69;709873;1180;115510;-77
2022/05/07 07:02:50;;;;;;;4.30;2.30;;;;;;;16.63;70.23;101033.97;709759;1182;115026;-74
2022/05/07 07:17:53;;;;;;;3.50;2.65;;;;;;;17.73;68.21;101044.64;709988;1209;26003;-71
2022/05/07 07:32:57;;;;;;;4.00;1.70;;;;;;;18.36;66.27;101045.02;710262;1211;26166;-80
2022/05/07 07:48:04;;;;;;;4.85;2.25;;;;;;;19.34;63.26;101029.75;710463;1209;23188;-78
2022/05/07 08:03:14;;;;;;;1.70;1.50;;;;;;;20.15;61.75;101028.54;709840;1173;114520;-76
2022/05/07 08:18:18;;;;;;;2.35;1.70;;;;;;;20.58;59.71;101026.13;710125;1182;115410;-78
2022/05/07 08:33:21;;;;;;;5.50;1.70;;;;;;;20.96;58.45;101031.38;710285;1174;114943;-77
2022/05/07 08:48:25;;;;;;;4.90;1.80;;;;;;;20.90;57.75;101030.27;710075;1180;115044;-77
2022/05/07 09:03:44;;;;;;;2.00;1.80;;;;;;;21.19;57.08;101039.23;710176;1180;114329;-76
2022/05/07 09:18:48;;;;;;;6.45;2.45;;;;;;;20.57;57.04;101035.94;709446;1182;115112;-75
2022/05/07 09:35:47;;;;;;;3.80;2.20;;;;;;;20.28;57.21;101050.06;709492;1180;115363;-75
2022/05/07 09:49:23;;;;;;;5.97;2.53;;;;;;;19.89;57.31;101051.08;709883;1173;120523;-76
2022/05/07 10:04:50;;;;;;;2.70;1.90;;;;;;;19.75;58.13;101034.80;709584;1180;114295;-74
2022/05/07 10:20:04;;;;;;;2.50;2.00;;;;;;;20.10;57.97;101027.25;710007;1180;114405;-75
2022/05/07 10:35:08;;;;;;;5.70;3.20;;;;;;;19.99;58.32;101022.34;710152;1180;115453;-73
2022/05/07 12:20:42;;;;;;;5.33;3.23;;;;;;;22.24;56.77;100948.82;714545;1173;23641;-79
2022/05/07 12:35:44;;;;;;;29.50;14.53;;;;;;;23.87;54.41;100919.63;714650;1177;113692;-79
2022/05/07 14:19:59;;;;;;;3.57;2.33;;;;;;;26.66;46.70;100846.37;714085;1166;25965;-82
2022/05/07 14:35:09;;;;;;;4.75;1.90;;;;;;;25.49;47.42;100832.02;713658;1174;113711;-80
2022/05/07 14:50:14;;;;;;;4.28;2.28;;;;;;;24.46;49.19;100817.85;713493;1174;115570;-80
2022/05/07 15:05:18;;;;;;;4.98;2.98;;;;;;;24.05;49.96;100812.66;713799;1174;115476;-78
2022/05/07 15:20:21;;;;;;;3.85;2.40;;;;;;;23.60;50.07;100816.05;713590;1174;114328;-79
2022/05/07 15:50:48;;;;;;;5.65;3.25;;;;;;;22.93;51.09;100799.17;713041;1174;114628;-81
2022/05/07 16:05:52;;;;;;;26.75;16.40;;;;;;;22.59;51.90;100790.27;713602;1174;113860;-77
2022/05/07 16:20:56;;;;;;;14.00;9.10;;;;;;;22.24;52.68;100783.16;713565;1174;114784;-81
2022/05/07 16:36:09;;;;;;;45.33;26.55;;;;;;;21.75;52.98;100786.86;713780;1174;114867;-79
2022/05/07 16:51:15;;;;;;;11.28;7.00;;;;;;;21.28;56.06;100814.00;713662;1174;115303;-78
2022/05/07 17:06:27;;;;;;;16.40;10.95;;;;;;;20.18;61.30;100807.95;713209;1174;115397;-79
2022/05/07 17:21:31;;;;;;;18.73;9.98;;;;;;;19.60;64.04;100813.08;713448;1174;115363;-79
2022/05/07 17:36:35;;;;;;;29.35;16.18;;;;;;;19.33;66.02;100814.48;713187;1174;114272;-81
2022/05/07 17:55:56;;;;;;;152.57;46.80;;;;;;;18.76;67.89;100848.44;715267;1174;23118;-87
2022/05/07 18:11:00;;;;;;;16.00;9.88;;;;;;;18.39;69.06;100845.47;714130;1174;114152;-88
2022/05/07 18:26:04;;;;;;;39.80;20.90;;;;;;;18.07;69.52;100857.06;713815;1174;114763;-87
2022/05/07 19:11:49;;;;;;;68.83;26.43;;;;;;;17.73;71.68;100872.18;713594;1173;114691;-76
2022/05/07 19:26:53;;;;;;;159.40;49.10;;;;;;;17.34;72.27;100886.14;713795;1174;114230;-76
2022/05/07 19:41:56;;;;;;;112.40;46.90;;;;;;;16.78;74.12;100885.84;714046;1173;115884;-81
2022/05/07 19:56:59;;;;;;;45.33;21.95;;;;;;;16.42;76.07;100881.57;714213;1174;114588;-80
2022/05/07 20:12:01;;;;;;;107.85;49.28;;;;;;;16.49;77.03;100884.41;713830;1167;114935;-80
2022/05/07 20:27:04;;;;;;;21.88;12.78;;;;;;;16.11;78.13;100902.42;713713;1173;115380;-80
2022/05/07 20:42:07;;;;;;;56.37;24.10;;;;;;;16.29;78.36;100916.42;713649;1174;115218;-80
2022/05/07 20:57:10;;;;;;;15.73;8.83;;;;;;;15.68;83.42;100965.75;713704;1174;115643;-80
2022/05/07 21:12:13;;;;;;;25.33;11.97;;;;;;;15.20;90.94;100961.65;713718;1174;114521;-80
2022/05/07 21:27:16;;;;;;;8.47;6.03;;;;;;;15.25;93.47;100932.97;713790;1174;115627;-75
2022/05/07 21:42:20;;;;;;;82.38;30.08;;;;;;;15.37;92.13;100910.60;713430;1174;114844;-76
2022/05/07 21:57:22;;;;;;;33.70;13.80;;;;;;;15.52;93.34;100912.71;713945;1174;114239;-76
2022/05/07 22:12:25;;;;;;;14.55;7.35;;;;;;;15.38;93.94;100933.42;716055;1174;115133;-75
2022/05/07 22:27:27;;;;;;;10.17;6.60;;;;;;;15.35;94.39;100939.02;713871;1174;115401;-77
2022/05/07 22:42:29;;;;;;;13.50;8.13;;;;;;;15.25;94.57;100927.67;713746;1174;114698;-76
2022/05/07 22:57:33;;;;;;;13.63;8.70;;;;;;;14.99;94.75;100936.31;713455;1174;115722;-74
2022/05/07 23:12:35;;;;;;;15.50;9.15;;;;;;;14.47;95.53;100934.19;713196;1174;115500;-76
2022/05/07 23:27:37;;;;;;;15.18;9.53;;;;;;;14.36;97.11;100929.08;713531;1174;115251;-76
2022/05/07 23:42:40;;;;;;;18.88;10.23;;;;;;;14.13;98.08;100946.11;713340;1174;115551;-75
2022/05/07 23:57:42;;;;;;;12.27;8.07;;;;;;;14.02;97.58;100940.98;713248;1174;114936;-74
